Darasun, Russia
Current Conditions -  °F | °C
As of 3:00 AM on Wednesday 22 Oct 2014 (Local Time) from UIAA Reporting Station
Clear Clear  
Wind Chill: 12°   Ceiling: Unl
Heat Index: 12°   Visibility: 6mi
Dew Point:   Wind: 2mph
Humidity: 73%   Direction: NA
Pressure: 29.91"   Gusts: NA
Location:  51.66°N, 113.96°E
Report Text: UIAA 211800Z VRB01MPS 9999 SKC M11/M15 Q1013 NOSIG RMK QFE70129CLRD70
Loading
Personal Weather Stations






























Interactive Weather Map
Tropical Storm Tracking
New forecast layout! Learn more

10-Day Weather Forecast

Advertisements
Track Severe Weather on mobile